createdAt,value
2022-11-19T00:00:41.221Z,-1.29
2022-11-19T00:01:41.215Z,-1.29
2022-11-19T00:02:41.171Z,-1.31
2022-11-19T00:03:41.155Z,-1.29
2022-11-19T00:04:41.154Z,-1.31
2022-11-19T00:05:41.122Z,-1.29
2022-11-19T00:06:41.130Z,-1.31
2022-11-19T00:07:41.125Z,-1.31
2022-11-19T00:08:41.092Z,-1.32
2022-11-19T00:09:41.091Z,-1.31
2022-11-19T00:10:41.069Z,-1.32
2022-11-19T00:11:41.081Z,-1.32
2022-11-19T00:12:41.057Z,-1.35
2022-11-19T00:13:41.027Z,-1.35
2022-11-19T00:14:41.057Z,-1.35
2022-11-19T00:15:41.009Z,-1.35
2022-11-19T00:16:40.998Z,-1.32
2022-11-19T00:17:40.980Z,-1.33
2022-11-19T00:18:40.969Z,-1.33
2022-11-19T00:19:40.969Z,-1.32
2022-11-19T00:20:40.948Z,-1.32
2022-11-19T00:21:40.937Z,-1.31
2022-11-19T00:22:40.920Z,-1.33
2022-11-19T00:23:40.905Z,-1.32
2022-11-19T00:24:40.927Z,-1.35
2022-11-19T00:25:40.877Z,-1.35
2022-11-19T00:26:40.866Z,-1.35
2022-11-19T00:27:40.848Z,-1.35
2022-11-19T00:28:40.852Z,-1.38
2022-11-19T00:29:40.872Z,-1.39
2022-11-19T00:30:48.149Z,-1.38
2022-11-19T00:31:41.805Z,-1.39
2022-11-19T00:32:40.796Z,-1.39
2022-11-19T00:33:40.795Z,-1.41
2022-11-19T00:34:40.778Z,-1.43
2022-11-19T00:35:40.775Z,-1.43
2022-11-19T00:36:40.756Z,-1.41
2022-11-19T00:37:40.734Z,-1.43
2022-11-19T00:38:40.733Z,-1.41
2022-11-19T00:39:40.730Z,-1.41
2022-11-19T00:40:40.695Z,-1.44
2022-11-19T00:41:40.682Z,-1.46
2022-11-19T00:42:40.675Z,-1.47
2022-11-19T00:43:40.678Z,-1.49
2022-11-19T00:44:40.658Z,-1.49
2022-11-19T00:45:40.642Z,-1.49
2022-11-19T00:46:40.613Z,-1.50
2022-11-19T00:47:40.595Z,-1.53
2022-11-19T00:48:40.596Z,-1.51
2022-11-19T00:49:40.602Z,-1.53
2022-11-19T00:50:40.647Z,-1.56
2022-11-19T00:51:40.581Z,-1.54
2022-11-19T00:52:40.552Z,-1.54
2022-11-19T00:53:40.533Z,-1.54
2022-11-19T00:54:40.529Z,-1.54
2022-11-19T00:55:40.515Z,-1.56
2022-11-19T00:56:40.492Z,-1.57
2022-11-19T00:57:40.482Z,-1.61
2022-11-19T00:58:40.461Z,-1.64
2022-11-19T00:59:40.487Z,-1.68
2022-11-19T01:00:40.461Z,-1.68
2022-11-19T01:01:40.465Z,-1.71
2022-11-19T01:02:40.420Z,-1.72
2022-11-19T01:03:40.421Z,-1.72
2022-11-19T01:04:40.825Z,-1.74
2022-11-19T01:05:40.384Z,-1.75
2022-11-19T01:06:40.367Z,-1.78
2022-11-19T01:07:40.416Z,-1.78
2022-11-19T01:08:40.336Z,-1.82
2022-11-19T01:09:40.341Z,-1.83
2022-11-19T01:10:40.351Z,-1.86
2022-11-19T01:11:40.299Z,-1.89
2022-11-19T01:12:40.298Z,-1.92
2022-11-19T01:13:40.269Z,-1.92
2022-11-19T01:14:40.343Z,-1.93
2022-11-19T01:15:40.272Z,-1.95
2022-11-19T01:16:40.279Z,-1.95
2022-11-19T01:17:40.233Z,-1.96
2022-11-19T01:18:40.224Z,-1.98
2022-11-19T01:19:40.296Z,-2.00
2022-11-19T01:20:40.261Z,-1.98
2022-11-19T01:21:40.173Z,-1.98
2022-11-19T01:22:40.172Z,-2.00
2022-11-19T01:23:40.166Z,-2.03
2022-11-19T01:24:40.162Z,-2.06
2022-11-19T01:25:40.124Z,-2.07
2022-11-19T01:26:44.464Z,-2.10
2022-11-19T01:27:41.133Z,-2.10
2022-11-19T01:28:40.114Z,-2.11
2022-11-19T01:29:40.080Z,-2.16
2022-11-19T01:30:40.064Z,-2.16
2022-11-19T01:31:40.076Z,-2.16
2022-11-19T01:32:40.047Z,-2.18
2022-11-19T01:33:40.044Z,-2.18
2022-11-19T01:34:40.032Z,-2.21
2022-11-19T01:35:39.998Z,-2.22
2022-11-19T01:36:40.002Z,-2.24
2022-11-19T01:37:39.968Z,-2.24
2022-11-19T01:38:39.969Z,-2.28
2022-11-19T01:39:39.995Z,-2.29
2022-11-19T01:40:39.980Z,-2.32
2022-11-19T01:41:40.351Z,-2.37
2022-11-19T01:42:39.947Z,-2.38
2022-11-19T01:43:39.904Z,-2.43
2022-11-19T01:44:39.899Z,-2.46
2022-11-19T01:45:39.875Z,-2.44
2022-11-19T01:46:39.892Z,-2.46
2022-11-19T01:47:39.847Z,-2.48
2022-11-19T01:48:39.858Z,-2.48
2022-11-19T01:49:39.842Z,-2.53
2022-11-19T01:50:39.834Z,-2.56
2022-11-19T01:51:39.806Z,-2.64
2022-11-19T01:52:39.795Z,-2.71
2022-11-19T01:53:39.767Z,-2.77
2022-11-19T01:54:39.815Z,-2.86
2022-11-19T01:55:39.750Z,-2.93
2022-11-19T01:56:39.751Z,-2.98
2022-11-19T01:57:39.743Z,-3.05
2022-11-19T01:58:39.742Z,-3.12
2022-11-19T01:59:39.724Z,-3.16
2022-11-19T02:00:39.687Z,-3.22
2022-11-19T02:01:39.780Z,-3.26
2022-11-19T02:02:39.685Z,-3.28
2022-11-19T02:03:39.690Z,-3.33
2022-11-19T02:04:39.686Z,-3.37
2022-11-19T02:05:39.631Z,-3.41
2022-11-19T02:06:39.642Z,-3.44
2022-11-19T02:07:39.657Z,-3.49
2022-11-19T02:08:39.604Z,-3.54
2022-11-19T02:09:39.584Z,-3.55
2022-11-19T02:10:39.570Z,-3.57
2022-11-19T02:11:39.567Z,-3.57
2022-11-19T02:12:39.552Z,-3.57
2022-11-19T02:13:39.525Z,-3.58
2022-11-19T02:14:39.532Z,-3.62
2022-11-19T02:15:39.501Z,-3.64
2022-11-19T02:16:39.485Z,-3.64
2022-11-19T02:17:39.479Z,-3.64
2022-11-19T02:18:39.458Z,-3.68
2022-11-19T02:19:39.471Z,-3.69
2022-11-19T02:20:39.439Z,-3.74
2022-11-19T02:21:39.431Z,-3.74
2022-11-19T02:22:39.417Z,-3.79
2022-11-19T02:23:44.744Z,-3.77
2022-11-19T02:24:40.397Z,-3.77
2022-11-19T02:25:39.392Z,-3.77
2022-11-19T02:26:39.374Z,-3.76
2022-11-19T02:27:39.346Z,-3.74
2022-11-19T02:28:39.359Z,-3.74
2022-11-19T02:29:39.328Z,-3.76
2022-11-19T02:30:39.317Z,-3.77
2022-11-19T02:31:39.295Z,-3.79
2022-11-19T02:32:39.291Z,-3.84
2022-11-19T02:33:39.311Z,-3.89
2022-11-19T02:34:39.277Z,-3.95
2022-11-19T02:35:39.256Z,-3.95
2022-11-19T02:36:39.235Z,-4.01
2022-11-19T02:37:39.230Z,-4.02
2022-11-19T02:38:39.218Z,-4.07
2022-11-19T02:39:39.203Z,-4.09
2022-11-19T02:40:39.192Z,-4.10
2022-11-19T02:41:39.206Z,-4.16
2022-11-19T02:42:39.166Z,-4.17
2022-11-19T02:43:39.153Z,-4.17
2022-11-19T02:44:39.153Z,-4.26
2022-11-19T02:45:39.122Z,-4.27
2022-11-19T02:46:39.113Z,-4.30
2022-11-19T02:47:39.090Z,-4.34
2022-11-19T02:48:39.093Z,-4.37
2022-11-19T02:49:39.080Z,-4.40
2022-11-19T02:50:39.069Z,-4.44
2022-11-19T02:51:39.040Z,-4.46
2022-11-19T02:52:39.059Z,-4.51
2022-11-19T02:53:39.028Z,-4.54
2022-11-19T02:54:39.021Z,-4.55
2022-11-19T02:55:39.003Z,-4.58
2022-11-19T02:56:38.986Z,-4.62
2022-11-19T02:57:38.975Z,-4.63
2022-11-19T02:58:38.965Z,-4.66
2022-11-19T02:59:38.967Z,-4.69
2022-11-19T03:00:38.937Z,-4.70
2022-11-19T03:01:38.956Z,-4.66
2022-11-19T03:02:38.921Z,-4.67
2022-11-19T03:03:38.896Z,-4.65
2022-11-19T03:04:39.004Z,-4.65
2022-11-19T03:05:38.882Z,-4.67
2022-11-19T03:06:38.860Z,-4.67
2022-11-19T03:07:38.969Z,-4.73
2022-11-19T03:08:38.831Z,-4.76
2022-11-19T03:09:38.832Z,-4.79
2022-11-19T03:10:38.825Z,-4.81
2022-11-19T03:11:38.800Z,-4.85
2022-11-19T03:12:38.796Z,-4.87
2022-11-19T03:13:38.775Z,-4.90
2022-11-19T03:14:38.789Z,-4.91
2022-11-19T03:15:38.752Z,-4.94
2022-11-19T03:16:38.734Z,-4.95
2022-11-19T03:17:38.723Z,-4.99
2022-11-19T03:18:38.723Z,-5.02
2022-11-19T03:19:38.708Z,-5.05
2022-11-19T03:20:38.699Z,-5.08
2022-11-19T03:21:38.663Z,-5.11
2022-11-19T03:22:38.662Z,-5.12
2022-11-19T03:23:38.643Z,-5.12
2022-11-19T03:24:38.653Z,-5.13
2022-11-19T03:25:38.623Z,-5.13
2022-11-19T03:26:38.613Z,-5.11
2022-11-19T03:27:38.590Z,-5.11
2022-11-19T03:28:38.600Z,-5.11
2022-11-19T03:29:38.583Z,-5.12
2022-11-19T03:30:38.558Z,-5.16
2022-11-19T03:31:38.553Z,-5.16
2022-11-19T03:32:38.539Z,-5.16
2022-11-19T03:33:38.507Z,-5.17
2022-11-19T03:34:38.549Z,-5.17
2022-11-19T03:35:38.510Z,-5.23
2022-11-19T03:36:38.495Z,-5.23
2022-11-19T03:37:38.478Z,-5.23
2022-11-19T03:38:38.470Z,-5.24
2022-11-19T03:39:38.449Z,-5.25
2022-11-19T03:40:38.443Z,-5.28
2022-11-19T03:41:38.426Z,-5.28
2022-11-19T03:42:38.408Z,-5.30
2022-11-19T03:43:38.397Z,-5.31
2022-11-19T03:44:38.397Z,-5.33
2022-11-19T03:45:38.365Z,-5.34
2022-11-19T03:46:38.355Z,-5.38
2022-11-19T03:47:38.345Z,-5.39
2022-11-19T03:48:38.355Z,-5.42
2022-11-19T03:49:38.322Z,-5.43
2022-11-19T03:50:38.307Z,-5.43
2022-11-19T03:51:38.298Z,-5.45
2022-11-19T03:52:38.272Z,-5.45
2022-11-19T03:53:38.276Z,-5.46
2022-11-19T03:54:38.271Z,-5.46
2022-11-19T03:55:38.254Z,-5.46
2022-11-19T03:56:38.244Z,-5.48
2022-11-19T03:57:38.223Z,-5.49
2022-11-19T03:58:38.221Z,-5.51
2022-11-19T03:59:38.204Z,-5.53
2022-11-19T04:00:38.188Z,-5.59
2022-11-19T04:01:38.203Z,-5.62
2022-11-19T04:02:38.163Z,-5.64
2022-11-19T04:03:38.154Z,-5.64
2022-11-19T04:04:38.157Z,-5.67
2022-11-19T04:05:38.124Z,-5.66
2022-11-19T04:06:38.101Z,-5.70
2022-11-19T04:07:38.123Z,-5.69
2022-11-19T04:08:38.086Z,-5.70
2022-11-19T04:09:38.091Z,-5.70
2022-11-19T04:10:38.052Z,-5.73
2022-11-19T04:11:38.045Z,-5.75
2022-11-19T04:12:38.067Z,-5.75
2022-11-19T04:13:38.042Z,-5.75
2022-11-19T04:14:38.028Z,-5.75
2022-11-19T04:15:38.001Z,-5.71
2022-11-19T04:16:37.990Z,-5.71
2022-11-19T04:17:37.988Z,-5.75
2022-11-19T04:18:37.962Z,-5.73
2022-11-19T04:19:37.997Z,-5.71
2022-11-19T04:20:37.938Z,-5.73
2022-11-19T04:21:37.923Z,-5.73
2022-11-19T04:22:37.930Z,-5.75
2022-11-19T04:23:37.907Z,-5.77
2022-11-19T04:24:37.896Z,-5.77
2022-11-19T04:25:37.879Z,-5.78
2022-11-19T04:26:37.889Z,-5.78
2022-11-19T04:27:37.859Z,-5.80
2022-11-19T04:28:37.844Z,-5.80
2022-11-19T04:29:37.837Z,-5.81
2022-11-19T04:30:37.814Z,-5.82
2022-11-19T04:31:37.806Z,-5.82
2022-11-19T04:32:37.780Z,-5.81
2022-11-19T04:33:37.772Z,-5.82
2022-11-19T04:34:37.763Z,-5.81
2022-11-19T04:35:37.752Z,-5.80
2022-11-19T04:36:37.726Z,-5.80
2022-11-19T04:37:37.714Z,-5.80
2022-11-19T04:38:37.707Z,-5.80
2022-11-19T04:39:37.713Z,-5.80
2022-11-19T04:40:37.684Z,-5.80
2022-11-19T04:41:37.680Z,-5.80
2022-11-19T04:42:37.662Z,-5.77
2022-11-19T04:43:37.652Z,-5.77
2022-11-19T04:44:37.653Z,-5.75
2022-11-19T04:45:37.634Z,-5.78
2022-11-19T04:46:37.604Z,-5.78
2022-11-19T04:47:37.610Z,-5.81
2022-11-19T04:48:37.582Z,-5.80
2022-11-19T04:49:37.588Z,-5.82
2022-11-19T04:50:37.563Z,-5.80
2022-11-19T04:51:37.557Z,-5.81
2022-11-19T04:52:40.813Z,-5.81
2022-11-19T04:53:37.527Z,-5.82
2022-11-19T04:54:37.539Z,-5.85
2022-11-19T04:55:37.507Z,-5.87
2022-11-19T04:56:37.489Z,-5.88
2022-11-19T04:57:37.491Z,-5.88
2022-11-19T04:58:37.456Z,-5.90
2022-11-19T04:59:37.469Z,-5.90
2022-11-19T05:00:37.459Z,-5.91
2022-11-19T05:01:37.540Z,-5.90
2022-11-19T05:02:37.407Z,-5.88
2022-11-19T05:03:37.399Z,-5.88
2022-11-19T05:04:37.413Z,-5.88
2022-11-19T05:05:37.382Z,-5.90
2022-11-19T05:06:37.357Z,-5.90
2022-11-19T05:07:37.399Z,-5.90
2022-11-19T05:08:37.333Z,-5.92
2022-11-19T05:09:37.339Z,-5.95
2022-11-19T05:10:37.321Z,-5.95
2022-11-19T05:11:37.320Z,-5.98
2022-11-19T05:12:37.285Z,-5.98
2022-11-19T05:13:37.276Z,-5.99
2022-11-19T05:14:37.284Z,-6.00
2022-11-19T05:15:37.252Z,-5.99
2022-11-19T05:16:37.246Z,-6.00
2022-11-19T05:17:37.237Z,-6.02
2022-11-19T05:18:37.213Z,-6.05
2022-11-19T05:19:37.219Z,-6.05
2022-11-19T05:20:37.191Z,-6.06
2022-11-19T05:21:37.191Z,-6.05
2022-11-19T05:22:37.162Z,-6.05
2022-11-19T05:23:37.163Z,-6.06
2022-11-19T05:24:37.144Z,-6.06
2022-11-19T05:25:37.139Z,-6.05
2022-11-19T05:26:37.112Z,-6.05
2022-11-19T05:27:37.116Z,-6.05
2022-11-19T05:28:39.744Z,-6.03
2022-11-19T05:29:37.090Z,-6.05
2022-11-19T05:30:37.089Z,-6.03
2022-11-19T05:31:37.076Z,-6.05
2022-11-19T05:32:37.053Z,-6.03
2022-11-19T05:33:37.028Z,-6.03
2022-11-19T05:34:37.024Z,-6.02
2022-11-19T05:35:37.022Z,-6.00
2022-11-19T05:36:37.003Z,-5.98
2022-11-19T05:37:36.981Z,-5.95
2022-11-19T05:38:36.987Z,-5.92
2022-11-19T05:39:36.971Z,-5.95
2022-11-19T05:40:36.936Z,-5.95
2022-11-19T05:41:36.927Z,-5.92
2022-11-19T05:42:36.926Z,-5.92
2022-11-19T05:43:36.915Z,-5.90
2022-11-19T05:44:36.915Z,-5.91
2022-11-19T05:45:36.897Z,-5.91
2022-11-19T05:46:36.875Z,-5.92
2022-11-19T05:47:36.854Z,-5.95
2022-11-19T05:48:36.843Z,-5.99
2022-11-19T05:49:36.842Z,-6.00
2022-11-19T05:50:36.827Z,-6.02
2022-11-19T05:51:36.804Z,-6.06
2022-11-19T05:52:36.791Z,-6.10
2022-11-19T05:53:36.772Z,-6.13
2022-11-19T05:54:36.778Z,-6.13
2022-11-19T05:55:36.752Z,-6.16
2022-11-19T05:56:36.778Z,-6.16
2022-11-19T05:57:36.736Z,-6.17
2022-11-19T05:58:36.738Z,-6.20
2022-11-19T05:59:40.875Z,-6.21
2022-11-19T06:00:37.699Z,-6.20
2022-11-19T06:01:36.682Z,-6.23
2022-11-19T06:02:36.714Z,-6.24
2022-11-19T06:03:36.651Z,-6.26
2022-11-19T06:04:36.653Z,-6.27
2022-11-19T06:05:40.256Z,-6.29
2022-11-19T06:06:36.611Z,-6.31
2022-11-19T06:07:36.672Z,-6.31
2022-11-19T06:08:36.594Z,-6.32
2022-11-19T06:09:36.588Z,-6.32
2022-11-19T06:10:36.567Z,-6.34
2022-11-19T06:11:36.560Z,-6.35
2022-11-19T06:12:39.235Z,-6.38
2022-11-19T06:13:37.567Z,-6.37
2022-11-19T06:14:36.535Z,-6.39
2022-11-19T06:15:36.506Z,-6.38
2022-11-19T06:16:36.491Z,-6.39
2022-11-19T06:17:36.477Z,-6.41
2022-11-19T06:18:36.483Z,-6.42
2022-11-19T06:19:36.474Z,-6.45
2022-11-19T06:20:36.449Z,-6.45
2022-11-19T06:21:36.437Z,-6.47
2022-11-19T06:22:36.416Z,-6.48
2022-11-19T06:23:36.413Z,-6.48
2022-11-19T06:24:36.415Z,-6.50
2022-11-19T06:25:36.380Z,-6.52
2022-11-19T06:26:36.380Z,-6.50
2022-11-19T06:27:36.357Z,-6.50
2022-11-19T06:28:36.333Z,-6.52
2022-11-19T06:29:36.346Z,-6.52
2022-11-19T06:30:36.320Z,-6.53
2022-11-19T06:31:36.308Z,-6.53
2022-11-19T06:32:36.292Z,-6.55
2022-11-19T06:33:36.282Z,-6.55
2022-11-19T06:34:36.289Z,-6.53
2022-11-19T06:35:36.270Z,-6.55
2022-11-19T06:36:41.798Z,-6.53
2022-11-19T06:37:37.235Z,-6.55
2022-11-19T06:38:36.213Z,-6.55
2022-11-19T06:39:36.234Z,-6.55
2022-11-19T06:40:36.199Z,-6.56
2022-11-19T06:41:36.209Z,-6.59
2022-11-19T06:42:36.207Z,-6.56
2022-11-19T06:43:36.181Z,-6.59
2022-11-19T06:44:36.181Z,-6.59
2022-11-19T06:45:36.160Z,-6.59
2022-11-19T06:46:36.118Z,-6.59
2022-11-19T06:47:36.128Z,-6.56
2022-11-19T06:48:36.099Z,-6.56
2022-11-19T06:49:36.096Z,-6.56
2022-11-19T06:50:36.066Z,-6.59
2022-11-19T06:51:36.064Z,-6.53
2022-11-19T06:52:36.057Z,-6.52
2022-11-19T06:53:36.036Z,-6.48
2022-11-19T06:54:40.234Z,-6.47
2022-11-19T06:55:37.014Z,-6.45
2022-11-19T06:56:35.996Z,-6.42
2022-11-19T06:57:36.014Z,-6.41
2022-11-19T06:58:35.985Z,-6.38
2022-11-19T06:59:35.991Z,-6.39
2022-11-19T07:00:35.962Z,-6.37
2022-11-19T07:01:36.023Z,-6.37
2022-11-19T07:02:35.932Z,-6.35
2022-11-19T07:03:35.928Z,-6.35
2022-11-19T07:04:35.921Z,-6.34
2022-11-19T07:05:35.905Z,-6.32
2022-11-19T07:06:35.874Z,-6.32
2022-11-19T07:07:35.921Z,-6.31
2022-11-19T07:08:35.865Z,-6.27
2022-11-19T07:09:35.859Z,-6.27
2022-11-19T07:10:35.820Z,-6.26
2022-11-19T07:11:35.810Z,-6.23
2022-11-19T07:12:35.800Z,-6.19
2022-11-19T07:13:35.800Z,-6.17
2022-11-19T07:14:35.789Z,-6.14
2022-11-19T07:15:35.798Z,-6.08
2022-11-19T07:16:35.752Z,-6.03
2022-11-19T07:17:35.743Z,-5.99
2022-11-19T07:18:35.728Z,-5.95
2022-11-19T07:19:35.739Z,-5.95
2022-11-19T07:20:35.700Z,-5.91
2022-11-19T07:21:35.711Z,-5.90
2022-11-19T07:22:35.670Z,-5.87
2022-11-19T07:23:35.677Z,-5.85
2022-11-19T07:24:35.672Z,-5.84
2022-11-19T07:25:35.662Z,-5.80
2022-11-19T07:26:35.625Z,-5.75
2022-11-19T07:27:35.628Z,-5.69
2022-11-19T07:28:35.605Z,-5.63
2022-11-19T07:29:35.616Z,-5.55
2022-11-19T07:30:35.577Z,-5.52
2022-11-19T07:31:35.569Z,-5.43
2022-11-19T07:32:35.570Z,-5.28
2022-11-19T07:33:35.544Z,-5.11
2022-11-19T07:34:35.543Z,-4.99
2022-11-19T07:35:35.526Z,-4.88
2022-11-19T07:36:35.519Z,-4.74
2022-11-19T07:37:35.504Z,-4.55
2022-11-19T07:38:37.062Z,-4.37
2022-11-19T07:39:35.494Z,-4.16
2022-11-19T07:40:35.455Z,-3.91
2022-11-19T07:41:35.465Z,-3.69
2022-11-19T07:42:35.457Z,-3.54
2022-11-19T07:43:35.424Z,-3.39
2022-11-19T07:44:35.419Z,-3.25
2022-11-19T07:45:35.402Z,-3.26
2022-11-19T07:46:35.383Z,-3.26
2022-11-19T07:47:35.386Z,-3.23
2022-11-19T07:48:35.362Z,-3.23
2022-11-19T07:49:35.368Z,-3.26
2022-11-19T07:50:35.330Z,-3.30
2022-11-19T07:51:35.332Z,-3.34
2022-11-19T07:53:35.017Z,-3.39
2022-11-19T07:54:35.006Z,-3.40
2022-11-19T07:55:34.987Z,-3.40
2022-11-19T07:56:34.966Z,-3.43
2022-11-19T07:57:35.237Z,-3.44
2022-11-19T07:58:34.945Z,-3.46
2022-11-19T07:59:34.955Z,-3.47
2022-11-19T08:00:34.915Z,-3.49
2022-11-19T08:01:34.966Z,-3.47
2022-11-19T08:02:34.886Z,-3.47
2022-11-19T08:03:34.895Z,-3.46
2022-11-19T08:04:34.903Z,-3.49
2022-11-19T08:05:34.875Z,-3.47
2022-11-19T08:06:34.880Z,-3.43
2022-11-19T08:07:34.922Z,-3.36
2022-11-19T08:08:34.845Z,-3.31
2022-11-19T08:09:34.834Z,-3.23
2022-11-19T08:10:34.792Z,-3.12
2022-11-19T08:11:34.781Z,-2.94
2022-11-19T08:12:34.781Z,-2.55
2022-11-19T08:13:34.761Z,-2.03
2022-11-19T08:14:34.810Z,-1.50
2022-11-19T08:15:34.742Z,-0.97
2022-11-19T08:16:34.746Z,-0.58
2022-11-19T08:17:34.732Z,-0.38
2022-11-19T08:18:34.700Z,-0.20
2022-11-19T08:19:34.690Z,-0.05
2022-11-19T08:20:34.678Z,0.05
2022-11-19T08:21:34.672Z,0.19
2022-11-19T08:22:34.651Z,0.25
2022-11-19T08:23:34.666Z,0.19
2022-11-19T08:24:34.631Z,0.08
2022-11-19T08:25:34.618Z,-0.05
2022-11-19T08:26:34.598Z,-0.17
2022-11-19T08:27:34.585Z,-0.34
2022-11-19T08:28:34.558Z,-0.47
2022-11-19T08:29:34.564Z,-0.58
2022-11-19T08:30:34.544Z,-0.62
2022-11-19T08:31:34.537Z,-0.56
2022-11-19T08:32:34.527Z,-0.50
2022-11-19T08:33:34.506Z,-0.44
2022-11-19T08:34:34.505Z,-0.42
2022-11-19T08:35:34.475Z,-0.37
2022-11-19T08:36:34.479Z,-0.34
2022-11-19T08:37:34.458Z,-0.26
2022-11-19T08:38:38.447Z,-0.16
2022-11-19T08:39:34.460Z,-0.01
2022-11-19T08:40:34.406Z,0.16
2022-11-19T08:41:34.429Z,0.31
2022-11-19T08:42:34.406Z,0.48
2022-11-19T08:43:34.386Z,0.63
2022-11-19T08:44:34.366Z,0.84
2022-11-19T08:45:34.358Z,1.02
2022-11-19T08:46:34.334Z,1.17
2022-11-19T08:47:34.325Z,1.18
2022-11-19T08:48:34.318Z,1.08
2022-11-19T08:49:34.329Z,0.99
2022-11-19T08:50:34.288Z,0.99
2022-11-19T08:51:34.277Z,1.00
2022-11-19T08:52:34.270Z,1.08
2022-11-19T08:53:34.275Z,1.32
2022-11-19T08:54:34.324Z,1.65
2022-11-19T08:55:34.242Z,2.07
2022-11-19T08:56:34.212Z,2.32
2022-11-19T08:57:34.218Z,2.41
2022-11-19T08:58:34.187Z,2.56
2022-11-19T08:59:34.242Z,2.79
2022-11-19T09:00:34.215Z,2.97
2022-11-19T09:01:34.160Z,3.08
2022-11-19T09:02:34.140Z,3.26
2022-11-19T09:03:34.133Z,3.50
2022-11-19T09:04:34.164Z,3.68
2022-11-19T09:05:34.122Z,3.75
2022-11-19T09:06:34.090Z,3.80
2022-11-19T09:07:34.091Z,3.86
2022-11-19T09:08:34.052Z,3.96
2022-11-19T09:09:34.063Z,4.11
2022-11-19T09:10:34.056Z,4.31
2022-11-19T09:11:36.286Z,4.59
2022-11-19T09:12:35.023Z,4.94
2022-11-19T09:13:34.034Z,5.32
2022-11-19T09:14:33.987Z,5.70
2022-11-19T09:15:33.971Z,5.99
2022-11-19T09:16:33.947Z,6.32
2022-11-19T09:17:33.993Z,6.58
2022-11-19T09:18:33.933Z,6.79
2022-11-19T09:19:33.937Z,6.91
2022-11-19T09:20:33.907Z,6.96
2022-11-19T09:21:33.889Z,6.96
2022-11-19T09:22:33.896Z,7.00
2022-11-19T09:23:33.866Z,7.07
2022-11-19T09:24:33.857Z,7.23
2022-11-19T09:25:33.848Z,7.39
2022-11-19T09:26:33.823Z,7.57
2022-11-19T09:27:33.818Z,7.74
2022-11-19T09:28:33.789Z,7.94
2022-11-19T09:29:33.811Z,8.10
2022-11-19T09:30:33.775Z,8.22
2022-11-19T09:31:33.776Z,8.37
2022-11-19T09:32:33.737Z,8.42
2022-11-19T09:33:33.737Z,8.54
2022-11-19T09:34:33.726Z,8.65
2022-11-19T09:35:33.705Z,8.78
2022-11-19T09:36:33.716Z,8.89
2022-11-19T09:37:33.680Z,9.00
2022-11-19T09:38:33.661Z,9.06
2022-11-19T09:39:33.669Z,9.15
2022-11-19T09:40:33.634Z,9.13
2022-11-19T09:41:33.626Z,9.00
2022-11-19T09:42:33.608Z,8.94
2022-11-19T09:43:33.606Z,8.91
2022-11-19T09:44:33.596Z,8.79
2022-11-19T09:45:33.586Z,8.73
2022-11-19T09:46:33.557Z,8.79
2022-11-19T09:47:33.552Z,8.83
2022-11-19T09:48:33.533Z,8.73
2022-11-19T09:49:33.534Z,8.73
2022-11-19T09:50:33.516Z,8.71
2022-11-19T09:51:33.503Z,8.63
2022-11-19T09:52:33.482Z,8.57
2022-11-19T09:53:33.472Z,8.54
2022-11-19T09:54:33.473Z,8.43
2022-11-19T09:55:33.449Z,8.32
2022-11-19T09:56:33.439Z,8.36
2022-11-19T09:57:33.413Z,8.43
2022-11-19T09:58:33.411Z,8.45
2022-11-19T09:59:33.401Z,8.37
2022-11-19T10:00:33.385Z,8.39
2022-11-19T10:01:33.372Z,8.37
2022-11-19T10:02:33.412Z,8.37
2022-11-19T10:03:34.103Z,8.40
2022-11-19T10:04:33.330Z,8.50
2022-11-19T10:05:33.332Z,8.55
2022-11-19T10:06:33.291Z,8.57
2022-11-19T10:07:33.315Z,8.57
2022-11-19T10:08:33.271Z,8.49
2022-11-19T10:09:33.275Z,8.43
2022-11-19T10:10:33.260Z,8.39
2022-11-19T10:11:33.239Z,8.32
2022-11-19T10:12:33.230Z,8.27
2022-11-19T10:13:33.213Z,8.32
2022-11-19T10:14:33.202Z,8.34
2022-11-19T10:15:37.414Z,8.42
2022-11-19T10:16:33.171Z,8.49
2022-11-19T10:17:33.167Z,8.50
2022-11-19T10:18:33.138Z,8.37
2022-11-19T10:19:33.162Z,8.24
2022-11-19T10:20:33.127Z,8.18
2022-11-19T10:21:33.108Z,8.07
2022-11-19T10:22:33.089Z,7.95
2022-11-19T10:23:33.081Z,7.88
2022-11-19T10:24:33.091Z,7.76
2022-11-19T10:25:33.066Z,7.66
2022-11-19T10:26:33.036Z,7.67
2022-11-19T10:27:33.031Z,7.71
2022-11-19T10:28:33.010Z,7.71
2022-11-19T10:29:33.022Z,7.66
2022-11-19T10:30:33.016Z,7.67
2022-11-19T10:31:32.983Z,7.70
2022-11-19T10:32:32.967Z,7.69
2022-11-19T10:33:32.950Z,7.62
2022-11-19T10:34:33.138Z,7.60
2022-11-19T10:35:32.929Z,7.58
2022-11-19T10:36:32.910Z,7.50
2022-11-19T10:37:32.921Z,7.36
2022-11-19T10:38:32.927Z,7.30
2022-11-19T10:39:32.938Z,7.26
2022-11-19T10:40:32.851Z,7.26
2022-11-19T10:41:32.847Z,7.24
2022-11-19T10:42:32.841Z,7.18
2022-11-19T10:43:32.823Z,7.21
2022-11-19T10:44:32.853Z,7.26
2022-11-19T10:45:32.821Z,7.26
2022-11-19T10:46:32.777Z,7.19
2022-11-19T10:47:32.777Z,7.15
2022-11-19T10:48:32.755Z,7.11
2022-11-19T10:49:32.757Z,7.05
2022-11-19T10:50:32.728Z,6.99
2022-11-19T10:51:32.717Z,6.94
2022-11-19T10:52:32.706Z,6.94
2022-11-19T10:53:32.696Z,6.99
2022-11-19T10:54:32.695Z,6.96
2022-11-19T10:55:32.692Z,6.91
2022-11-19T10:56:32.649Z,6.83
2022-11-19T10:57:32.645Z,6.72
2022-11-19T10:58:32.647Z,6.65
2022-11-19T10:59:32.628Z,6.55
2022-11-19T11:01:53.797Z,6.43
2022-11-19T11:02:53.772Z,6.36
2022-11-19T11:03:53.764Z,6.38
2022-11-19T11:04:53.759Z,6.38
2022-11-19T11:05:53.732Z,6.36
2022-11-19T11:06:53.727Z,6.32
2022-11-19T11:07:53.766Z,6.21
2022-11-19T11:08:53.720Z,6.17
2022-11-19T11:09:53.685Z,6.10
2022-11-19T11:10:53.680Z,5.99
2022-11-19T11:11:53.653Z,5.95
2022-11-19T11:12:53.631Z,5.98
2022-11-19T11:13:53.643Z,5.95
2022-11-19T11:14:53.617Z,5.96
2022-11-19T11:15:53.621Z,5.93
2022-11-19T11:16:53.596Z,5.85
2022-11-19T11:17:53.573Z,5.83
2022-11-19T11:18:53.580Z,5.78
2022-11-19T11:19:53.542Z,5.67
2022-11-19T11:20:53.539Z,5.58
2022-11-19T11:21:53.522Z,5.48
2022-11-19T11:22:53.521Z,5.45
2022-11-19T11:23:53.509Z,5.45
2022-11-19T11:24:53.508Z,5.40
2022-11-19T11:25:53.460Z,5.41
2022-11-19T11:26:53.480Z,5.41
2022-11-19T11:27:53.449Z,5.40
2022-11-19T11:28:53.449Z,5.29
2022-11-19T11:29:53.410Z,5.22
2022-11-19T11:30:53.408Z,5.12
2022-11-19T11:31:53.391Z,5.11
2022-11-19T11:32:53.399Z,5.11
2022-11-19T11:33:53.393Z,5.11
2022-11-19T11:34:53.358Z,5.09
2022-11-19T11:35:53.336Z,4.94
2022-11-19T11:36:53.339Z,4.87
2022-11-19T11:37:53.307Z,4.84
2022-11-19T11:38:53.315Z,4.77
2022-11-19T11:39:53.277Z,4.67
2022-11-19T11:41:05.336Z,4.62
2022-11-19T11:42:05.527Z,4.53
2022-11-19T11:42:54.247Z,4.46
2022-11-19T11:43:53.234Z,4.42
2022-11-19T11:44:53.253Z,4.46
2022-11-19T11:45:53.210Z,4.51
2022-11-19T11:46:53.199Z,4.56
2022-11-19T11:47:53.176Z,4.59
2022-11-19T11:48:53.167Z,4.59
2022-11-19T11:49:53.176Z,4.51
2022-11-19T11:51:38.862Z,4.46
2022-11-19T11:51:53.123Z,4.49
2022-11-19T11:52:53.120Z,4.50
2022-11-19T11:53:53.095Z,4.51
2022-11-19T11:54:53.100Z,4.54
2022-11-19T11:55:53.083Z,4.51
2022-11-19T11:56:53.065Z,4.47
2022-11-19T11:57:53.041Z,4.47
2022-11-19T11:58:53.101Z,4.44
2022-11-19T11:59:53.040Z,4.38
2022-11-19T12:00:53.014Z,4.26
2022-11-19T12:01:53.062Z,4.21
2022-11-19T12:02:52.998Z,4.16
2022-11-19T12:03:55.203Z,4.07
2022-11-19T12:04:52.959Z,3.99
2022-11-19T12:05:52.934Z,3.89
2022-11-19T12:06:52.922Z,3.77
2022-11-19T12:07:52.914Z,3.68
2022-11-19T12:08:52.889Z,3.59
2022-11-19T12:09:52.890Z,3.52
2022-11-19T12:10:52.871Z,3.49
2022-11-19T12:11:52.861Z,3.45
2022-11-19T12:12:52.850Z,3.44
2022-11-19T12:13:52.848Z,3.44
2022-11-19T12:14:52.837Z,3.46
2022-11-19T12:15:52.825Z,3.42
2022-11-19T12:16:52.780Z,3.35
2022-11-19T12:17:52.821Z,3.30
2022-11-19T12:18:52.762Z,3.17
2022-11-19T12:19:52.768Z,3.12
2022-11-19T12:20:52.757Z,3.04
2022-11-19T12:21:52.720Z,2.98
2022-11-19T12:22:52.727Z,2.97
2022-11-19T12:23:52.715Z,2.98
2022-11-19T12:24:52.721Z,3.01
2022-11-19T12:25:52.684Z,3.01
2022-11-19T12:26:52.688Z,2.98
2022-11-19T12:27:52.658Z,2.97
2022-11-19T12:28:52.647Z,2.92
2022-11-19T12:29:52.626Z,2.87
2022-11-19T12:30:52.608Z,2.83
2022-11-19T12:31:52.604Z,2.80
2022-11-19T12:32:52.586Z,2.74
2022-11-19T12:33:52.565Z,2.69
2022-11-19T12:34:52.567Z,2.68
2022-11-19T12:35:52.555Z,2.66
2022-11-19T12:36:52.558Z,2.61
2022-11-19T12:37:52.515Z,2.56
2022-11-19T12:38:52.505Z,2.47
2022-11-19T12:39:52.520Z,2.41
2022-11-19T12:40:52.487Z,2.38
2022-11-19T12:41:52.482Z,2.38
2022-11-19T12:42:52.466Z,2.37
2022-11-19T12:43:52.442Z,2.38
2022-11-19T12:44:52.443Z,2.38
2022-11-19T12:45:52.415Z,2.40
2022-11-19T12:46:52.415Z,2.38
2022-11-19T12:47:52.419Z,2.37
2022-11-19T12:48:52.380Z,2.38
2022-11-19T12:49:52.375Z,2.38
2022-11-19T12:50:52.354Z,2.37
2022-11-19T12:51:52.354Z,2.37
2022-11-19T12:52:52.324Z,2.38
2022-11-19T12:53:52.312Z,2.43
2022-11-19T12:54:52.305Z,2.43
2022-11-19T12:55:52.282Z,2.45
2022-11-19T12:56:52.272Z,2.50
2022-11-19T12:57:52.264Z,2.53
2022-11-19T12:58:52.240Z,2.53
2022-11-19T12:59:52.252Z,2.55
2022-11-19T13:00:52.248Z,2.55
2022-11-19T13:01:52.210Z,2.55
2022-11-19T13:02:52.190Z,2.51
2022-11-19T13:03:52.191Z,2.50